Date,TemperatureHighF,TemperatureAvgF,TemperatureLowF,DewpointHighF,DewpointAvgF,DewpointLowF,HumidityHigh,HumidityAvg,HumidityLow,PressureMaxIn,PressureMinIn,WindSpeedMaxMPH,WindSpeedAvgMPH,GustSpeedMaxMPH,PrecipitationSumIn
2013-6-1,57,50,43,57,50,42,99,97,93,29.71,29.62,4,0,9,0.82
2013-6-2,57,52,48,57,51,48,99,98,95,30.01,29.64,3,0,8,1.27
2013-6-3,49,48,46,49,47,46,99,98,97,30.10,30.01,2,0,6,0.57
2013-6-4,60,54,49,53,51,48,98,90,75,30.08,30.01,2,0,5,0.04
2013-6-5,68,57,46,54,50,45,96,78,55,30.08,30.04,2,0,5,0.00
2013-6-6,69,59,51,59,54,50,96,84,65,30.13,30.08,1,0,5,0.00
2013-6-7,74,61,48,62,56,48,99,85,62,30.11,30.02,4,0,5,0.00
2013-6-8,78,66,53,64,59,52,98,80,53,30.04,29.85,1,0,5,0.00
2013-6-9,79,64,54,67,59,53,98,85,52,29.85,29.65,6,0,6,0.07
2013-6-10,62,59,56,60,57,53,98,95,87,29.82,29.65,1,0,2,0.34
2013-6-11,71,61,51,54,50,45,96,70,40,30.03,29.82,2,0,6,0.00
2013-6-12,76,63,48,55,49,44,96,64,34,30.11,30.03,2,0,3,0.00
2013-6-13,82,68,53,59,53,46,88,62,39,30.10,29.87,3,0,6,0.00
2013-6-14,72,63,55,58,54,49,94,72,49,30.09,29.87,3,0,6,0.07
2013-6-15,80,64,49,61,55,48,97,74,45,30.03,29.89,7,0,8,0.00
2013-6-16,81,69,58,58,55,52,89,64,38,30.01,29.92,3,0,6,0.00
2013-6-17,87,71,56,72,62,54,93,75,54,30.00,29.90,5,0,7,0.00
2013-6-18,94,79,63,77,69,61,97,74,47,29.96,29.89,1,0,5,0.00
2013-6-19,94,79,64,79,69,63,98,75,45,29.97,29.85,3,0,7,0.00
2013-6-20,95,80,66,77,70,61,97,74,44,29.85,29.68,4,0,8,0.00
2013-6-21,81,71,63,63,61,58,95,71,48,29.97,29.77,4,1,13,0.11
2013-6-22,82,71,63,63,60,55,90,69,44,29.98,29.88,2,0,5,0.02
2013-6-23,78,69,61,62,58,52,92,69,49,29.92,29.84,4,1,14,0.00
2013-6-24,65,57,54,57,53,47,97,86,59,30.03,29.92,3,0,7,0.45
2013-6-25,55,53,50,54,52,49,98,96,91,30.13,29.97,3,0,8,1.08
2013-6-26,55,52,49,51,48,45,97,88,73,30.25,30.11,3,0,7,0.09
2013-6-27,64,55,48,50,47,43,91,75,51,30.25,30.15,2,0,5,0.00
2013-6-28,69,58,43,53,47,42,97,71,41,30.16,30.05,3,0,7,0.00
2013-6-29,69,59,48,54,50,46,93,75,53,30.07,29.96,4,1,9,0.00
2013-6-30,68,58,51,55,47,40,94,68,45,30.16,30.04,3,0,7,0.04